createdAt,value
2017-10-20T00:01:28.808Z,12.97
2017-10-20T00:03:57.054Z,11.90
2017-10-20T00:06:24.488Z,12.47
2017-10-20T00:08:51.940Z,11.57
2017-10-20T00:11:19.366Z,12.13
2017-10-20T00:13:47.582Z,11.27
2017-10-20T00:16:15.026Z,12.17
2017-10-20T00:18:42.466Z,12.97
2017-10-20T00:21:09.896Z,11.30
2017-10-20T00:23:38.116Z,11.73
2017-10-20T00:26:05.546Z,12.53
2017-10-20T00:28:32.996Z,11.30
2017-10-20T00:31:01.207Z,11.90
2017-10-20T00:33:28.661Z,12.20
2017-10-20T00:35:56.098Z,11.80
2017-10-20T00:38:23.537Z,12.43
2017-10-20T00:40:51.749Z,12.13
2017-10-20T00:43:19.206Z,12.13
2017-10-20T00:45:47.409Z,12.67
2017-10-20T00:48:14.857Z,12.50
2017-10-20T00:50:42.296Z,11.40
2017-10-20T00:53:09.753Z,11.30
2017-10-20T00:55:37.189Z,11.63
2017-10-20T00:58:04.633Z,12.70
2017-10-20T01:00:32.848Z,13.00
2017-10-20T01:03:00.305Z,12.73
2017-10-20T01:05:27.741Z,14.73
2017-10-20T01:07:55.181Z,13.20
2017-10-20T01:10:23.386Z,13.50
2017-10-20T01:12:50.826Z,13.90
2017-10-20T01:15:18.311Z,12.40
2017-10-20T01:17:45.733Z,13.20
2017-10-20T01:20:13.171Z,11.50
2017-10-20T01:22:40.850Z,12.87
2017-10-20T01:25:08.282Z,12.00
2017-10-20T01:27:35.721Z,12.80
2017-10-20T01:30:03.166Z,12.50
2017-10-20T01:32:30.617Z,11.70
2017-10-20T01:34:58.045Z,13.47
2017-10-20T01:37:25.479Z,12.30
2017-10-20T01:39:53.693Z,14.63
2017-10-20T01:42:21.129Z,16.17
2017-10-20T01:44:48.577Z,15.30
2017-10-20T01:47:16.014Z,16.27
2017-10-20T01:49:43.453Z,13.10
2017-10-20T01:52:10.881Z,14.70
2017-10-20T01:54:38.317Z,12.83
2017-10-20T01:57:05.745Z,13.20
2017-10-20T01:59:33.950Z,14.40
2017-10-20T02:02:01.381Z,13.27
2017-10-20T02:04:33.956Z,14.03
2017-10-20T02:07:02.164Z,13.07
2017-10-20T02:09:30.603Z,14.23
2017-10-20T02:11:58.804Z,13.33
2017-10-20T02:14:26.240Z,13.40
2017-10-20T02:16:54.455Z,13.30
2017-10-20T02:19:21.877Z,13.20
2017-10-20T02:21:50.074Z,12.20
2017-10-20T02:24:17.517Z,12.87
2017-10-20T02:26:44.949Z,12.27
2017-10-20T02:29:12.384Z,13.23
2017-10-20T02:31:39.817Z,12.70
2017-10-20T02:34:07.255Z,12.17
2017-10-20T02:36:34.689Z,12.93
2017-10-20T02:39:02.896Z,12.10
2017-10-20T02:41:30.324Z,14.03
2017-10-20T02:43:58.533Z,13.67
2017-10-20T02:46:26.020Z,13.00
2017-10-20T02:48:53.451Z,13.50
2017-10-20T02:51:20.887Z,12.00
2017-10-20T02:53:48.314Z,13.50
2017-10-20T02:56:16.521Z,12.87
2017-10-20T02:58:43.957Z,12.60
2017-10-20T03:01:13.149Z,13.10
2017-10-20T03:03:41.352Z,12.10
2017-10-20T03:06:08.784Z,12.07
2017-10-20T03:08:36.996Z,13.50
2017-10-20T03:11:04.424Z,13.67
2017-10-20T03:13:31.862Z,12.00
2017-10-20T03:15:59.289Z,14.00
2017-10-20T03:18:26.724Z,13.77
2017-10-20T03:20:54.162Z,12.43
2017-10-20T03:23:21.601Z,12.00
2017-10-20T03:25:49.807Z,10.90
2017-10-20T03:28:18.145Z,12.80
2017-10-20T03:30:46.346Z,12.40
2017-10-20T03:33:13.792Z,13.10
2017-10-20T03:35:41.996Z,13.50
2017-10-20T03:38:09.436Z,13.07
2017-10-20T03:40:36.868Z,12.97
2017-10-20T03:43:05.083Z,12.57
2017-10-20T03:45:32.528Z,14.10
2017-10-20T03:47:59.960Z,14.57
2017-10-20T03:50:27.417Z,14.97
2017-10-20T03:52:55.629Z,14.80
2017-10-20T03:55:23.073Z,14.80
2017-10-20T03:57:50.508Z,13.47
2017-10-20T04:00:18.715Z,14.60
2017-10-20T04:02:46.148Z,13.97
2017-10-20T04:05:13.584Z,14.00
2017-10-20T04:07:41.008Z,15.87
2017-10-20T04:10:08.454Z,15.27
2017-10-20T04:12:35.891Z,14.60
2017-10-20T04:15:03.335Z,14.87
2017-10-20T04:17:30.760Z,14.40
2017-10-20T04:19:58.201Z,14.70
2017-10-20T04:22:25.637Z,15.80
2017-10-20T04:24:53.075Z,14.70
2017-10-20T04:27:20.512Z,14.63
2017-10-20T04:29:48.724Z,15.23
2017-10-20T04:32:16.164Z,15.37
2017-10-20T04:34:43.613Z,14.40
2017-10-20T04:37:11.805Z,15.20
2017-10-20T04:39:39.241Z,13.80
2017-10-20T04:42:07.243Z,14.13
2017-10-20T04:44:34.684Z,13.60
2017-10-20T04:47:02.112Z,14.60
2017-10-20T04:49:29.572Z,14.17
2017-10-20T04:51:57.012Z,13.43
2017-10-20T04:54:25.220Z,14.27
2017-10-20T04:56:52.644Z,14.10
2017-10-20T04:59:20.861Z,15.03
2017-10-20T05:01:48.289Z,13.90
2017-10-20T05:04:16.493Z,14.83
2017-10-20T05:06:44.741Z,14.67
2017-10-20T05:09:12.179Z,15.53
2017-10-20T05:11:39.612Z,14.37
2017-10-20T05:14:07.053Z,14.07
2017-10-20T05:16:34.489Z,13.83
2017-10-20T05:19:01.915Z,13.90
2017-10-20T05:21:30.127Z,14.67
2017-10-20T05:23:57.572Z,17.57
2017-10-20T05:26:24.995Z,14.07
2017-10-20T05:28:53.214Z,15.20
2017-10-20T05:31:20.657Z,13.73
2017-10-20T05:33:48.088Z,14.67
2017-10-20T05:36:16.285Z,14.60
2017-10-20T05:38:43.723Z,14.83
2017-10-20T05:41:11.928Z,15.10
2017-10-20T05:43:39.375Z,14.73
2017-10-20T05:46:06.806Z,14.97
2017-10-20T05:48:35.018Z,15.73
2017-10-20T05:51:02.460Z,14.83
2017-10-20T05:53:29.880Z,14.40
2017-10-20T05:55:57.316Z,14.63
2017-10-20T05:58:24.762Z,15.13
2017-10-20T06:00:52.204Z,15.00
2017-10-20T06:03:19.640Z,16.33
2017-10-20T06:05:47.843Z,15.70
2017-10-20T06:08:15.281Z,15.20
2017-10-20T06:10:42.725Z,14.93
2017-10-20T06:13:10.156Z,14.13
2017-10-20T06:15:37.603Z,15.23
2017-10-20T06:18:07.024Z,15.00
2017-10-20T06:20:35.241Z,15.30
2017-10-20T06:23:02.667Z,14.20
2017-10-20T06:25:30.874Z,15.80
2017-10-20T06:27:58.317Z,14.93
2017-10-20T06:30:25.757Z,15.73
2017-10-20T06:32:53.969Z,16.37
2017-10-20T06:35:21.406Z,15.10
2017-10-20T06:37:48.848Z,16.03
2017-10-20T06:40:17.058Z,15.53
2017-10-20T06:42:44.489Z,17.17
2017-10-20T06:45:11.924Z,15.80
2017-10-20T06:47:40.144Z,15.60
2017-10-20T06:50:07.583Z,15.87
2017-10-20T06:52:35.016Z,14.83
2017-10-20T06:55:02.461Z,15.60
2017-10-20T06:57:29.898Z,14.50
2017-10-20T06:59:57.323Z,15.50
2017-10-20T07:02:24.760Z,16.37
2017-10-20T07:04:52.212Z,17.27
2017-10-20T07:07:19.645Z,16.30
2017-10-20T07:09:47.081Z,16.87
2017-10-20T07:12:14.538Z,16.10
2017-10-20T07:14:41.976Z,17.23
2017-10-20T07:17:09.430Z,16.93
2017-10-20T07:19:42.452Z,16.70
2017-10-20T07:22:09.894Z,16.27
2017-10-20T07:24:37.328Z,16.93
2017-10-20T07:27:04.777Z,18.57
2017-10-20T07:29:32.220Z,18.20
2017-10-20T07:31:59.661Z,17.27
2017-10-20T07:34:27.868Z,17.33
2017-10-20T07:36:57.224Z,17.50
2017-10-20T07:39:25.443Z,18.37
2017-10-20T07:41:52.881Z,20.63
2017-10-20T07:44:20.316Z,18.07
2017-10-20T07:46:47.754Z,18.40
2017-10-20T07:49:15.175Z,20.30
2017-10-20T07:51:42.657Z,19.40
2017-10-20T07:54:10.837Z,20.80
2017-10-20T07:56:38.271Z,20.03
2017-10-20T07:59:05.719Z,19.33
2017-10-20T08:01:33.167Z,18.20
2017-10-20T08:04:00.607Z,19.00
2017-10-20T08:06:28.802Z,18.77
2017-10-20T08:08:56.236Z,20.50
2017-10-20T08:11:23.674Z,22.47
2017-10-20T08:13:51.884Z,21.57
2017-10-20T08:16:19.322Z,19.93
2017-10-20T08:18:46.763Z,20.60
2017-10-20T08:21:14.964Z,21.80
2017-10-20T08:23:42.397Z,21.43
2017-10-20T08:26:10.621Z,20.90
2017-10-20T08:28:38.053Z,24.40
2017-10-20T08:31:05.490Z,21.27
2017-10-20T08:33:33.745Z,23.20
2017-10-20T08:36:01.191Z,21.03
2017-10-20T08:38:28.624Z,20.03
2017-10-20T08:40:56.069Z,21.10
2017-10-20T08:43:23.498Z,21.03
2017-10-20T08:45:51.723Z,22.93
2017-10-20T08:48:19.146Z,22.77
2017-10-20T08:50:46.585Z,22.93
2017-10-20T08:53:14.782Z,22.83
2017-10-20T08:55:42.218Z,22.30
2017-10-20T08:58:09.660Z,23.43
2017-10-20T09:00:37.877Z,22.90
2017-10-20T09:03:05.312Z,21.30
2017-10-20T09:05:32.754Z,23.97
2017-10-20T09:08:00.945Z,22.80
2017-10-20T09:10:28.389Z,23.00
2017-10-20T09:12:56.600Z,21.80
2017-10-20T09:15:24.033Z,22.30
2017-10-20T09:17:51.485Z,19.93
2017-10-20T09:20:19.684Z,19.43
2017-10-20T09:22:47.122Z,19.70
2017-10-20T09:25:14.557Z,20.37
2017-10-20T09:27:42.752Z,18.67
2017-10-20T09:30:10.246Z,19.60
2017-10-20T09:32:37.661Z,18.70
2017-10-20T09:35:05.096Z,18.80
2017-10-20T09:37:33.306Z,16.03
2017-10-20T09:40:00.745Z,16.63
2017-10-20T09:42:28.949Z,16.77
2017-10-20T09:44:56.385Z,18.63
2017-10-20T09:47:23.825Z,16.10
2017-10-20T09:49:52.044Z,14.27
2017-10-20T09:52:19.479Z,13.23
2017-10-20T09:54:46.918Z,12.77
2017-10-20T09:57:15.125Z,11.67
2017-10-20T09:59:42.556Z,9.90
2017-10-20T10:02:09.992Z,11.70
2017-10-20T10:04:38.192Z,10.67
2017-10-20T10:07:06.392Z,9.10
2017-10-20T10:09:34.821Z,8.80
2017-10-20T10:12:02.258Z,7.83
2017-10-20T10:14:29.683Z,8.40
2017-10-20T10:16:57.134Z,8.80
2017-10-20T10:19:24.561Z,9.30
2017-10-20T10:21:52.779Z,11.33
2017-10-20T10:24:20.209Z,8.67
2017-10-20T10:26:47.643Z,8.33
2017-10-20T10:29:15.858Z,8.30
2017-10-20T10:31:43.288Z,9.10
2017-10-20T10:34:10.748Z,9.00
2017-10-20T10:36:38.181Z,8.37
2017-10-20T10:39:05.608Z,8.73
2017-10-20T10:41:33.069Z,8.80
2017-10-20T10:44:00.498Z,9.40
2017-10-20T10:46:27.937Z,9.30
2017-10-20T10:48:55.373Z,9.27
2017-10-20T10:51:23.589Z,10.93
2017-10-20T10:53:51.021Z,9.83
2017-10-20T10:56:18.467Z,10.00
2017-10-20T10:58:46.656Z,9.27
2017-10-20T11:01:14.090Z,10.17
2017-10-20T11:03:42.286Z,9.93
2017-10-20T11:06:21.620Z,11.13
2017-10-20T11:09:00.860Z,8.37
2017-10-20T11:11:40.125Z,6.33
2017-10-20T11:14:07.545Z,5.30
2017-10-20T11:16:34.986Z,5.47
2017-10-20T11:19:02.406Z,3.30
2017-10-20T11:21:30.810Z,2.90
2017-10-20T11:23:58.237Z,2.53
2017-10-20T11:26:27.673Z,2.80
2017-10-20T11:28:55.868Z,2.37
2017-10-20T11:31:25.246Z,2.30
2017-10-20T11:33:52.681Z,2.20
2017-10-20T11:36:20.121Z,1.30
2017-10-20T11:38:47.549Z,1.53
2017-10-20T11:41:14.976Z,0.90
2017-10-20T11:43:43.165Z,0.90
2017-10-20T11:46:10.608Z,1.00
2017-10-20T11:48:38.073Z,0.90
2017-10-20T11:51:05.506Z,0.97
2017-10-20T11:53:32.924Z,0.80
2017-10-20T11:56:00.367Z,0.70
2017-10-20T11:58:27.784Z,0.70
2017-10-20T12:00:55.230Z,0.70
2017-10-20T12:03:22.652Z,0.70
2017-10-20T12:05:50.118Z,0.70
2017-10-20T12:08:17.557Z,0.80
2017-10-20T12:10:44.976Z,0.87
2017-10-20T12:13:13.173Z,0.87
2017-10-20T12:15:40.592Z,0.90
2017-10-20T12:18:08.021Z,1.23
2017-10-20T12:20:35.456Z,0.73
2017-10-20T12:23:02.890Z,0.70
2017-10-20T12:25:31.096Z,0.87
2017-10-20T12:27:58.521Z,1.00
2017-10-20T12:30:25.945Z,1.13
2017-10-20T12:32:53.385Z,1.67
2017-10-20T12:35:20.847Z,1.00
2017-10-20T12:37:48.289Z,1.07
2017-10-20T12:40:15.720Z,1.50
2017-10-20T12:42:43.148Z,0.90
2017-10-20T12:45:11.340Z,1.27
2017-10-20T12:47:38.769Z,1.17
2017-10-20T12:50:06.195Z,0.97
2017-10-20T12:52:33.628Z,1.10
2017-10-20T12:55:01.051Z,0.90
2017-10-20T12:57:28.513Z,1.10
2017-10-20T12:59:56.701Z,1.10
2017-10-20T13:02:24.128Z,0.70
2017-10-20T13:04:51.581Z,0.90
2017-10-20T13:07:19.002Z,0.97
2017-10-20T13:09:46.444Z,1.90
2017-10-20T13:12:13.871Z,1.00
2017-10-20T13:14:42.066Z,1.17
2017-10-20T13:17:09.493Z,1.47
2017-10-20T13:19:37.696Z,1.10
2017-10-20T13:22:05.131Z,1.20
2017-10-20T13:24:33.330Z,0.90
2017-10-20T13:27:00.752Z,1.27
2017-10-20T13:29:28.955Z,1.00
2017-10-20T13:31:56.388Z,1.00
2017-10-20T13:34:24.580Z,1.30
2017-10-20T13:36:52.018Z,1.30
2017-10-20T13:39:20.218Z,1.20
2017-10-20T13:41:47.658Z,0.87
2017-10-20T13:44:15.859Z,1.00
2017-10-20T13:46:43.293Z,1.30
2017-10-20T13:49:11.479Z,1.43
2017-10-20T13:51:38.912Z,1.30
2017-10-20T13:54:07.113Z,1.20
2017-10-20T13:56:34.548Z,1.27
2017-10-20T13:59:02.746Z,2.10
2017-10-20T14:01:30.172Z,1.20
2017-10-20T14:03:58.372Z,1.30
2017-10-20T14:06:25.799Z,1.10
2017-10-20T14:08:53.219Z,1.20
2017-10-20T14:11:20.661Z,1.10
2017-10-20T14:13:48.093Z,1.10
2017-10-20T14:16:16.291Z,2.40
2017-10-20T14:18:43.708Z,1.60
2017-10-20T14:21:11.908Z,2.27
2017-10-20T14:23:39.339Z,1.80
2017-10-20T14:26:07.541Z,1.20
2017-10-20T14:28:34.980Z,1.20
2017-10-20T14:31:03.174Z,1.57
2017-10-20T14:33:30.613Z,1.53
2017-10-20T14:35:58.804Z,1.43
2017-10-20T14:38:26.240Z,2.03
2017-10-20T14:40:54.440Z,1.47
2017-10-20T14:43:21.869Z,1.20
2017-10-20T14:45:50.060Z,1.37
2017-10-20T14:48:17.489Z,1.43
2017-10-20T14:50:45.681Z,1.70
2017-10-20T14:53:13.120Z,1.70
2017-10-20T14:55:41.316Z,1.87
2017-10-20T14:58:08.768Z,1.77
2017-10-20T15:00:36.954Z,1.30
2017-10-20T15:03:04.401Z,1.43
2017-10-20T15:05:32.587Z,1.83
2017-10-20T15:08:00.025Z,1.50
2017-10-20T15:10:28.221Z,1.57
2017-10-20T15:12:55.656Z,1.70
2017-10-20T15:15:23.864Z,1.90
2017-10-20T15:17:51.292Z,1.93
2017-10-20T15:20:19.496Z,1.60
2017-10-20T15:22:46.936Z,1.73
2017-10-20T15:25:14.360Z,1.23
2017-10-20T15:27:41.794Z,1.97
2017-10-20T15:30:09.229Z,1.30
2017-10-20T15:32:36.681Z,1.57
2017-10-20T15:35:04.125Z,1.30
2017-10-20T15:37:31.542Z,1.33
2017-10-20T15:39:59.006Z,1.07
2017-10-20T15:42:26.438Z,1.10
2017-10-20T15:44:53.870Z,1.40
2017-10-20T15:47:21.302Z,1.43
2017-10-20T15:49:48.724Z,1.50
2017-10-20T15:52:16.160Z,1.20
2017-10-20T15:54:43.584Z,2.07
2017-10-20T15:57:11.012Z,1.40
2017-10-20T15:59:39.215Z,1.37
2017-10-20T16:02:06.644Z,1.20
2017-10-20T16:04:34.844Z,1.80
2017-10-20T16:07:02.271Z,1.80
2017-10-20T16:09:29.693Z,1.40
2017-10-20T16:11:57.149Z,1.97
2017-10-20T16:14:24.557Z,1.50
2017-10-20T16:16:51.998Z,1.47
2017-10-20T16:19:20.196Z,1.87
2017-10-20T16:21:47.638Z,1.93
2017-10-20T16:24:15.841Z,2.03
2017-10-20T16:26:43.270Z,1.90
2017-10-20T16:29:10.697Z,2.80
2017-10-20T16:31:38.128Z,2.37
2017-10-20T16:34:05.568Z,2.40
2017-10-20T16:36:32.993Z,3.30
2017-10-20T16:39:01.184Z,1.70
2017-10-20T16:41:28.612Z,2.37
2017-10-20T16:43:56.804Z,2.03
2017-10-20T16:46:24.231Z,1.90
2017-10-20T16:48:51.671Z,3.10
2017-10-20T16:51:19.105Z,2.20
2017-10-20T16:53:46.537Z,2.30
2017-10-20T16:56:14.036Z,2.30
2017-10-20T16:58:41.469Z,2.40
2017-10-20T17:01:08.905Z,2.07
2017-10-20T17:03:36.364Z,3.07
2017-10-20T17:06:03.798Z,2.10
2017-10-20T17:08:32.017Z,1.87
2017-10-20T17:10:59.435Z,2.03
2017-10-20T17:13:27.652Z,2.07
2017-10-20T17:15:55.104Z,2.47
2017-10-20T17:18:22.546Z,2.57
2017-10-20T17:20:50.004Z,2.60
2017-10-20T17:23:17.444Z,2.30
2017-10-20T17:25:45.624Z,1.73
2017-10-20T17:28:13.061Z,2.80
2017-10-20T17:30:41.284Z,2.43
2017-10-20T17:33:08.724Z,3.00
2017-10-20T17:35:36.156Z,2.40
2017-10-20T17:38:04.351Z,3.60
2017-10-20T17:40:31.832Z,3.43
2017-10-20T17:42:59.257Z,2.90
2017-10-20T17:45:27.445Z,2.23
2017-10-20T17:47:54.876Z,1.87
2017-10-20T17:50:23.090Z,2.40
2017-10-20T17:52:50.523Z,2.70
2017-10-20T17:55:17.982Z,2.40
2017-10-20T17:57:46.167Z,2.80
2017-10-20T18:00:13.594Z,2.67
2017-10-20T18:02:41.793Z,2.27
2017-10-20T18:05:09.213Z,2.60
2017-10-20T18:07:36.644Z,2.53
2017-10-20T18:10:07.090Z,2.97
2017-10-20T18:12:34.525Z,2.70
2017-10-20T18:15:01.971Z,3.50
2017-10-20T18:17:29.408Z,3.43
2017-10-20T18:19:56.838Z,3.30
2017-10-20T18:22:25.070Z,2.90
2017-10-20T18:24:52.497Z,3.10
2017-10-20T18:27:19.922Z,3.43
2017-10-20T18:29:48.124Z,3.37
2017-10-20T18:32:15.602Z,3.50
2017-10-20T18:34:43.036Z,3.43
2017-10-20T18:37:10.466Z,3.47
2017-10-20T18:39:38.688Z,2.40
2017-10-20T18:42:06.116Z,3.23
2017-10-20T18:44:33.549Z,2.83
2017-10-20T18:47:00.981Z,1.87
2017-10-20T18:49:28.413Z,2.70
2017-10-20T18:51:55.849Z,2.40
2017-10-20T18:54:23.277Z,2.87
2017-10-20T18:56:51.471Z,3.20
2017-10-20T18:59:18.906Z,3.77
2017-10-20T19:01:47.099Z,3.07
2017-10-20T19:04:15.305Z,3.77
2017-10-20T19:06:42.734Z,2.70
2017-10-20T19:09:10.162Z,4.70
2017-10-20T19:11:37.600Z,3.47
2017-10-20T19:14:05.072Z,2.90
2017-10-20T19:16:32.517Z,3.80
2017-10-20T19:18:59.953Z,4.93
2017-10-20T19:21:27.382Z,3.37
2017-10-20T19:23:54.821Z,4.20
2017-10-20T19:26:23.028Z,4.00
2017-10-20T19:28:50.473Z,3.93
2017-10-20T19:31:17.904Z,3.87
2017-10-20T19:33:46.114Z,3.30
2017-10-20T19:36:14.305Z,3.30
2017-10-20T19:38:41.736Z,2.93
2017-10-20T19:41:09.180Z,3.87
2017-10-20T19:43:36.609Z,3.10
2017-10-20T19:46:04.037Z,2.80
2017-10-20T19:48:31.490Z,2.90
2017-10-20T19:50:58.932Z,3.37
2017-10-20T19:53:26.368Z,2.97
2017-10-20T19:55:53.796Z,3.43
2017-10-20T19:58:21.229Z,3.90
2017-10-20T20:00:48.648Z,3.43
2017-10-20T20:03:16.097Z,3.10
2017-10-20T20:05:43.516Z,3.60
2017-10-20T20:08:10.958Z,3.70
2017-10-20T20:10:38.385Z,3.70
2017-10-20T20:13:05.820Z,5.30
2017-10-20T20:15:33.248Z,3.37
2017-10-20T20:18:00.678Z,3.70
2017-10-20T20:20:28.106Z,3.67
2017-10-20T20:22:55.535Z,3.50
2017-10-20T20:25:23.724Z,4.33
2017-10-20T20:27:51.182Z,4.27
2017-10-20T20:30:18.644Z,4.53
2017-10-20T20:32:47.501Z,5.20
2017-10-20T20:35:16.467Z,3.80
2017-10-20T20:37:43.897Z,4.03
2017-10-20T20:40:11.363Z,4.80
2017-10-20T20:42:38.792Z,3.80
2017-10-20T20:45:06.260Z,4.30
2017-10-20T20:47:33.677Z,4.40
2017-10-20T20:50:01.875Z,4.37
2017-10-20T20:52:30.076Z,4.67
2017-10-20T20:54:57.516Z,4.13
2017-10-20T20:57:24.947Z,4.60
2017-10-20T20:59:53.159Z,4.60
2017-10-20T21:02:20.581Z,4.40
2017-10-20T21:04:48.789Z,3.83
2017-10-20T21:07:16.220Z,3.57
2017-10-20T21:09:44.420Z,4.37
2017-10-20T21:12:11.849Z,3.90
2017-10-20T21:14:39.308Z,4.10
2017-10-20T21:17:07.497Z,4.03
2017-10-20T21:19:34.937Z,3.80
2017-10-20T21:22:03.154Z,3.90
2017-10-20T21:24:30.582Z,3.57
2017-10-20T21:26:58.103Z,3.80
2017-10-20T21:29:25.531Z,5.10
2017-10-20T21:31:52.972Z,3.70
2017-10-20T21:34:20.440Z,4.97
2017-10-20T21:36:47.876Z,5.00
2017-10-20T21:39:16.214Z,4.90
2017-10-20T21:41:43.626Z,5.17
2017-10-20T21:44:11.052Z,3.27
2017-10-20T21:46:38.541Z,5.03
2017-10-20T21:49:05.949Z,4.00
2017-10-20T21:51:34.136Z,4.30
2017-10-20T21:54:01.577Z,4.50
2017-10-20T21:56:29.773Z,5.33
2017-10-20T21:58:57.213Z,3.47
2017-10-20T22:01:25.450Z,3.87
2017-10-20T22:03:52.897Z,3.93
2017-10-20T22:06:20.309Z,4.33
2017-10-20T22:08:48.524Z,4.00
2017-10-20T22:11:15.950Z,3.47
2017-10-20T22:13:43.419Z,3.53
2017-10-20T22:16:10.846Z,4.07
2017-10-20T22:18:39.039Z,2.70
2017-10-20T22:21:06.530Z,3.50
2017-10-20T22:23:33.976Z,4.30
2017-10-20T22:26:01.413Z,3.33
2017-10-20T22:28:28.848Z,3.87
2017-10-20T22:30:57.046Z,2.90
2017-10-20T22:33:24.470Z,2.93
2017-10-20T22:35:51.934Z,3.10
2017-10-20T22:38:20.120Z,3.30
2017-10-20T22:40:47.550Z,3.40
2017-10-20T22:43:14.972Z,2.73
2017-10-20T22:45:42.435Z,3.40
2017-10-20T22:48:10.093Z,2.40
2017-10-20T22:50:37.525Z,2.50
2017-10-20T22:53:04.965Z,2.20
2017-10-20T22:55:32.418Z,3.47
2017-10-20T22:58:00.615Z,2.80
2017-10-20T23:00:28.036Z,3.90
2017-10-20T23:02:56.254Z,3.10
2017-10-20T23:05:23.672Z,2.33
2017-10-20T23:07:51.899Z,3.03
2017-10-20T23:10:19.327Z,2.47
2017-10-20T23:12:46.749Z,3.30
2017-10-20T23:15:14.180Z,3.20
2017-10-20T23:17:41.622Z,4.47
2017-10-20T23:20:09.072Z,3.10
2017-10-20T23:22:36.501Z,3.20
2017-10-20T23:25:04.704Z,3.17
2017-10-20T23:27:32.137Z,2.77
2017-10-20T23:29:59.578Z,2.40
2017-10-20T23:32:26.998Z,2.17
2017-10-20T23:34:54.437Z,2.33
2017-10-20T23:37:21.861Z,2.37
2017-10-20T23:39:49.306Z,3.30
2017-10-20T23:42:17.484Z,2.40
2017-10-20T23:44:45.704Z,2.87
2017-10-20T23:47:13.147Z,2.43
2017-10-20T23:49:40.597Z,2.83
2017-10-20T23:52:08.026Z,2.30
2017-10-20T23:54:36.236Z,3.30
2017-10-20T23:57:03.666Z,2.40
2017-10-20T23:59:35.401Z,2.60
